Time;durP1;ratioP1;P1;durP2;ratioP2;P2;SDS_P1;SDS_P2;PMS_P1;PMS_P2;Temp;Humidity;BMP_temperature;BMP_pressure;BME280_temperature;BME280_humidity;BME280_pressure;Samples;Min_cycle;Max_cycle;Signal;HPM_P1;HPM_P2
2023/04/19 00:02:17;;;;;;;8.97;4.03;;;11.20;98.00;;;;;;5052506;28;21161;-66
2023/04/19 00:04:47;;;;;;;8.87;4.50;;;11.20;98.00;;;;;;5052235;28;20458;-65
2023/04/19 00:07:15;;;;;;;7.63;4.07;;;11.20;98.00;;;;;;5052068;28;21313;-65
2023/04/19 00:09:42;;;;;;;8.90;4.03;;;11.20;98.00;;;;;;5052285;28;20803;-68
2023/04/19 00:12:09;;;;;;;8.10;3.80;;;11.20;98.00;;;;;;5051728;28;21007;-66
2023/04/19 00:14:37;;;;;;;8.50;4.23;;;11.20;98.00;;;;;;5052170;28;20517;-65
2023/04/19 00:17:04;;;;;;;9.40;4.00;;;11.10;98.00;;;;;;5051863;28;20519;-67
2023/04/19 00:19:31;;;;;;;7.87;4.03;;;11.00;98.00;;;;;;5052038;28;20465;-66
2023/04/19 00:22:00;;;;;;;8.27;3.93;;;11.10;98.00;;;;;;5034347;28;20451;-66
2023/04/19 00:24:29;;;;;;;10.03;4.33;;;11.10;98.00;;;;;;5052099;28;20474;-65
2023/04/19 00:26:57;;;;;;;7.50;3.40;;;11.20;98.00;;;;;;5051696;28;20882;-67
2023/04/19 00:29:25;;;;;;;5.60;3.40;;;11.20;98.00;;;;;;5052081;28;20511;-66
2023/04/19 00:31:52;;;;;;;10.33;4.07;;;11.20;98.00;;;;;;5034382;28;20465;-65
2023/04/19 00:34:19;;;;;;;10.50;4.50;;;11.10;98.00;;;;;;5051918;28;20550;-66
2023/04/19 00:36:47;;;;;;;8.40;4.13;;;11.00;98.00;;;;;;5051992;28;20454;-66
2023/04/19 00:39:15;;;;;;;10.10;4.33;;;11.00;98.00;;;;;;5051933;28;20491;-65
2023/04/19 00:41:42;;;;;;;8.10;3.90;;;10.90;98.00;;;;;;5051985;28;20865;-65
2023/04/19 00:44:09;;;;;;;6.40;3.33;;;10.90;98.00;;;;;;5051817;28;20529;-66
2023/04/19 00:46:38;;;;;;;8.13;4.00;;;10.90;98.00;;;;;;5051752;28;20487;-66
2023/04/19 00:49:05;;;;;;;6.77;3.27;;;11.00;98.00;;;;;;5051361;28;20522;-67
2023/04/19 00:51:32;;;;;;;10.10;4.57;;;11.10;98.00;;;;;;5051785;28;20461;-65
2023/04/19 00:54:00;;;;;;;8.07;3.60;;;11.00;98.00;;;;;;5050113;28;20467;-66
2023/04/19 00:56:29;;;;;;;8.33;4.00;;;11.10;98.00;;;;;;5051485;28;20515;-67
2023/04/19 00:58:56;;;;;;;8.20;4.13;;;11.00;98.00;;;;;;5051222;28;20483;-65
2023/04/19 01:01:23;;;;;;;15.37;5.07;;;11.00;98.00;;;;;;5051484;28;20448;-65
2023/04/19 01:03:51;;;;;;;10.03;4.00;;;11.00;98.00;;;;;;5051683;28;20950;-65
2023/04/19 01:06:18;;;;;;;9.00;3.87;;;11.10;98.00;;;;;;5051242;28;20486;-66
2023/04/19 01:08:45;;;;;;;11.40;4.00;;;10.90;98.00;;;;;;5051305;28;20465;-66
2023/04/19 01:11:12;;;;;;;5.80;3.60;;;10.90;98.00;;;;;;5050043;28;20558;-67
2023/04/19 01:13:43;;;;;;;13.43;4.17;;;11.10;98.00;;;;;;5051393;28;21008;-67
2023/04/19 01:16:11;;;;;;;11.13;4.13;;;11.00;98.00;;;;;;5051295;28;20939;-65
2023/04/19 01:18:39;;;;;;;8.50;3.67;;;11.00;98.00;;;;;;5051449;28;20558;-65
2023/04/19 01:21:08;;;;;;;12.63;4.27;;;10.90;98.00;;;;;;5051390;28;20522;-65
2023/04/19 01:23:39;;;;;;;6.50;3.87;;;10.90;98.00;;;;;;5051438;28;20453;-65
2023/04/19 01:26:06;;;;;;;8.30;4.03;;;10.90;98.00;;;;;;5051304;28;20465;-67
2023/04/19 01:28:34;;;;;;;11.53;4.83;;;11.00;98.00;;;;;;5051597;28;20933;-66
2023/04/19 01:31:01;;;;;;;7.10;4.10;;;11.00;98.00;;;;;;5051274;28;20451;-65
2023/04/19 01:33:28;;;;;;;8.23;3.80;;;10.90;98.00;;;;;;5051470;28;20459;-66
2023/04/19 01:35:55;;;;;;;6.87;3.40;;;11.00;98.00;;;;;;5051396;28;20809;-66
2023/04/19 01:38:22;;;;;;;7.77;4.00;;;11.00;98.00;;;;;;5050434;28;20965;-65
2023/04/19 01:40:55;;;;;;;7.40;4.07;;;11.00;98.00;;;;;;5051280;28;20462;-65
2023/04/19 01:43:22;;;;;;;10.70;4.00;;;10.90;98.00;;;;;;5051204;28;20470;-66
2023/04/19 01:45:49;;;;;;;12.13;4.43;;;10.90;98.00;;;;;;5051072;28;20453;-65
2023/04/19 01:48:16;;;;;;;11.20;4.20;;;10.80;98.00;;;;;;5049855;28;20555;-67
2023/04/19 02:04:13;;;;;;;7.00;3.17;;;10.80;98.00;;;;;;5054603;28;20941;-65
2023/04/19 02:06:43;;;;;;;8.10;4.07;;;10.70;98.00;;;;;;5054441;28;20487;-65
2023/04/19 02:09:10;;;;;;;7.90;3.97;;;10.60;98.00;;;;;;5054471;28;20453;-65
2023/04/19 02:11:37;;;;;;;8.50;4.30;;;10.50;98.00;;;;;;5054451;28;20541;-66
2023/04/19 02:14:05;;;;;;;9.83;3.80;;;10.50;98.00;;;;;;5054106;28;20541;-67
2023/04/19 02:16:32;;;;;;;7.43;3.50;;;10.50;98.00;;;;;;5054296;28;20968;-65
2023/04/19 02:18:59;;;;;;;12.00;5.30;;;10.40;98.00;;;;;;5053181;28;20460;-66
2023/04/19 02:21:27;;;;;;;10.60;4.63;;;10.60;98.00;;;;;;5053917;28;20518;-65
2023/04/19 02:23:56;;;;;;;11.40;4.57;;;10.60;98.00;;;;;;5054351;28;20543;-66
2023/04/19 02:26:24;;;;;;;12.33;4.10;;;10.50;98.00;;;;;;5054320;28;20461;-65
2023/04/19 02:28:51;;;;;;;7.10;3.80;;;10.60;98.00;;;;;;5054467;28;20500;-66
2023/04/19 02:31:19;;;;;;;9.47;4.43;;;10.70;98.00;;;;;;5054166;28;20957;-67
2023/04/19 02:33:47;;;;;;;9.00;3.90;;;10.60;98.00;;;;;;5053136;28;20471;-65
2023/04/19 02:36:14;;;;;;;10.73;4.10;;;10.70;98.00;;;;;;5053688;28;20512;-65
2023/04/19 02:38:42;;;;;;;10.70;5.10;;;10.70;98.00;;;;;;5054207;28;20512;-65
2023/04/19 02:41:09;;;;;;;7.10;4.20;;;10.70;98.00;;;;;;5053856;28;20455;-65
2023/04/19 02:43:36;;;;;;;9.20;4.37;;;10.70;98.00;;;;;;5053753;28;20476;-65
2023/04/19 02:46:03;;;;;;;7.67;3.90;;;10.70;98.00;;;;;;5053258;28;20568;-66
2023/04/19 02:48:30;;;;;;;9.60;4.70;;;10.70;98.00;;;;;;5052439;28;20492;-67
2023/04/19 02:50:58;;;;;;;10.13;4.03;;;10.70;98.00;;;;;;5053390;28;20969;-65
2023/04/19 02:53:25;;;;;;;11.90;4.87;;;10.70;98.00;;;;;;5053707;28;20473;-66
2023/04/19 02:55:53;;;;;;;8.13;3.93;;;10.60;98.00;;;;;;5052274;28;20954;-66
2023/04/19 02:58:20;;;;;;;9.97;4.60;;;10.40;98.00;;;;;;5053540;28;20873;-67
2023/04/19 03:00:49;;;;;;;7.83;3.63;;;10.40;98.00;;;;;;5051994;28;20460;-65
2023/04/19 03:03:15;;;;;;;9.70;4.73;;;10.30;98.00;;;;;;5053532;28;20919;-65
2023/04/19 03:05:43;;;;;;;13.57;4.10;;;10.40;98.00;;;;;;5052042;28;20461;-67
2023/04/19 03:08:10;;;;;;;8.37;4.80;;;10.30;98.00;;;;;;5053394;28;20493;-65
2023/04/19 03:10:37;;;;;;;9.57;4.57;;;10.20;98.00;;;;;;5053651;28;20464;-66
2023/04/19 03:13:06;;;;;;;7.87;4.10;;;10.30;98.00;;;;;;5053150;28;20462;-65
2023/04/19 03:15:33;;;;;;;7.00;3.70;;;10.30;98.00;;;;;;5053218;28;21063;-66
2023/04/19 03:18:00;;;;;;;10.07;4.83;;;10.40;98.00;;;;;;5053202;28;20962;-65
2023/04/19 03:20:27;;;;;;;9.67;4.30;;;10.30;98.00;;;;;;5053207;28;20461;-66
2023/04/19 03:22:54;;;;;;;10.03;3.70;;;10.30;98.00;;;;;;5053311;28;20481;-65
2023/04/19 03:25:21;;;;;;;8.90;4.50;;;10.30;98.00;;;;;;5053344;28;20453;-65
2023/04/19 03:27:50;;;;;;;8.90;4.20;;;10.20;98.00;;;;;;5053118;28;20804;-64
2023/04/19 03:30:20;;;;;;;8.90;3.70;;;10.10;98.00;;;;;;5053188;28;20461;-66
2023/04/19 03:32:48;;;;;;;7.67;4.17;;;10.00;98.00;;;;;;5053034;28;20450;-65
2023/04/19 03:35:15;;;;;;;9.23;4.30;;;9.80;98.00;;;;;;5051268;28;20457;-66
2023/04/19 03:37:42;;;;;;;8.50;4.33;;;9.80;98.00;;;;;;5052786;28;20518;-65
2023/04/19 03:40:10;;;;;;;10.17;4.70;;;9.60;98.00;;;;;;5052649;28;20550;-67
2023/04/19 03:42:37;;;;;;;8.40;3.93;;;9.40;98.00;;;;;;5052293;28;20899;-67
2023/04/19 03:45:04;;;;;;;11.83;4.50;;;9.30;98.00;;;;;;5052667;28;20461;-64
2023/04/19 03:47:33;;;;;;;8.07;3.80;;;9.10;98.00;;;;;;5052456;28;21005;-65
2023/04/19 03:50:01;;;;;;;5.17;3.33;;;9.10;98.00;;;;;;5052748;28;20458;-66
2023/04/19 03:52:28;;;;;;;8.97;4.30;;;9.10;98.00;;;;;;5052336;28;20453;-66
2023/04/19 03:54:55;;;;;;;8.30;3.83;;;8.90;98.00;;;;;;5052516;28;20458;-66
2023/04/19 03:57:23;;;;;;;12.53;4.97;;;9.00;98.00;;;;;;5051161;28;20818;-66
2023/04/19 03:59:52;;;;;;;5.83;3.33;;;9.10;98.00;;;;;;5052359;28;20967;-66
2023/04/19 04:02:19;;;;;;;9.10;4.40;;;9.10;98.00;;;;;;5052441;28;20953;-65
2023/04/19 04:04:52;;;;;;;10.73;3.80;;;9.10;98.00;;;;;;5052489;28;20963;-65
2023/04/19 04:07:20;;;;;;;7.23;4.10;;;9.00;98.00;;;;;;5051836;28;20485;-65
2023/04/19 04:09:47;;;;;;;7.53;3.93;;;8.90;98.00;;;;;;5051159;28;20450;-65
2023/04/19 04:12:14;;;;;;;7.00;3.80;;;8.80;98.00;;;;;;5051978;28;20967;-66
2023/04/19 04:14:41;;;;;;;7.43;3.90;;;8.80;98.00;;;;;;5052468;28;20820;-66
2023/04/19 04:17:09;;;;;;;7.83;3.47;;;8.80;98.00;;;;;;5050977;28;20456;-65
2023/04/19 04:19:36;;;;;;;7.20;3.40;;;8.70;98.00;;;;;;5052112;28;20481;-65
2023/04/19 04:22:05;;;;;;;7.03;3.43;;;8.80;98.00;;;;;;5051490;28;20462;-66
2023/04/19 04:24:40;;;;;;;11.70;4.30;;;8.80;98.00;;;;;;5050901;28;20493;-65
2023/04/19 04:27:08;;;;;;;7.03;3.70;;;8.80;98.00;;;;;;5051217;28;20957;-65
2023/04/19 04:29:36;;;;;;;7.40;3.30;;;8.80;98.00;;;;;;5050811;28;20800;-64
2023/04/19 04:32:07;;;;;;;10.87;4.17;;;8.70;98.00;;;;;;5051673;28;20545;-66
2023/04/19 04:34:34;;;;;;;12.63;5.20;;;8.80;98.00;;;;;;5051989;28;20802;-66
2023/04/19 04:37:01;;;;;;;9.80;4.63;;;8.70;98.00;;;;;;5051565;28;20516;-65
2023/04/19 04:39:33;;;;;;;10.03;4.50;;;8.70;98.00;;;;;;5051751;28;20495;-67
2023/04/19 04:42:01;;;;;;;15.93;4.27;;;8.70;98.00;;;;;;5050525;28;20466;-67
2023/04/19 04:44:29;;;;;;;11.07;4.10;;;8.80;98.00;;;;;;5051517;28;20452;-65
2023/04/19 04:46:56;;;;;;;13.13;4.63;;;8.80;98.00;;;;;;5051553;28;20453;-65
2023/04/19 04:49:24;;;;;;;7.70;3.57;;;8.90;98.00;;;;;;5051690;28;20457;-65
2023/04/19 04:51:51;;;;;;;8.93;3.77;;;8.90;98.00;;;;;;5051633;28;20462;-65
2023/04/19 04:54:18;;;;;;;7.70;4.20;;;9.10;98.00;;;;;;5051524;28;20458;-66
2023/04/19 04:56:47;;;;;;;14.03;4.50;;;9.10;98.00;;;;;;5051433;28;20963;-65
2023/04/19 04:59:14;;;;;;;9.90;4.17;;;9.20;98.00;;;;;;5051460;28;20548;-65
2023/04/19 05:01:41;;;;;;;8.40;3.80;;;9.20;98.00;;;;;;5051652;28;20458;-65
2023/04/19 05:04:08;;;;;;;9.23;4.50;;;9.40;98.00;;;;;;5051625;28;20454;-65
2023/04/19 05:06:35;;;;;;;10.70;5.10;;;9.50;98.00;;;;;;5051479;28;20457;-65
2023/04/19 05:09:03;;;;;;;8.67;4.00;;;9.70;98.00;;;;;;5051375;28;20882;-67
2023/04/19 05:11:30;;;;;;;6.57;3.53;;;9.80;98.00;;;;;;5050433;28;21017;-65
2023/04/19 05:13:59;;;;;;;12.80;4.53;;;10.00;98.00;;;;;;5051482;28;20576;-66
2023/04/19 05:16:29;;;;;;;9.47;3.87;;;10.10;98.00;;;;;;5051723;28;20468;-65
2023/04/19 05:18:56;;;;;;;9.67;4.70;;;10.20;98.00;;;;;;5051581;28;20468;-65
2023/04/19 05:21:25;;;;;;;10.20;4.87;;;10.10;98.00;;;;;;5051715;28;20507;-66
2023/04/19 05:23:53;;;;;;;10.20;3.87;;;10.10;98.00;;;;;;5051665;28;20497;-65
2023/04/19 05:26:20;;;;;;;8.20;3.40;;;10.20;98.00;;;;;;5050443;28;20807;-66
2023/04/19 05:28:47;;;;;;;8.10;4.10;;;10.30;98.00;;;;;;5051234;28;20848;-65
2023/04/19 05:31:17;;;;;;;10.40;4.70;;;10.30;98.00;;;;;;5051449;28;20460;-66
2023/04/19 05:33:44;;;;;;;8.73;3.90;;;10.30;98.00;;;;;;5051313;28;20461;-66
2023/04/19 05:36:11;;;;;;;9.83;3.97;;;10.40;98.00;;;;;;5052526;28;20469;-67
2023/04/19 05:38:38;;;;;;;20.00;4.23;;;10.30;98.00;;;;;;5055224;28;20454;-65
2023/04/19 05:41:05;;;;;;;11.73;4.30;;;10.40;98.00;;;;;;5055020;28;20990;-65
2023/04/19 05:43:33;;;;;;;11.30;4.07;;;10.40;98.00;;;;;;5055153;28;20457;-65
2023/04/19 05:46:02;;;;;;;10.50;4.73;;;10.50;98.00;;;;;;5053596;28;20487;-65
2023/04/19 05:48:31;;;;;;;9.47;4.13;;;10.60;98.00;;;;;;5053963;28;20886;-66
2023/04/19 05:50:58;;;;;;;10.17;3.73;;;10.80;98.00;;;;;;5054829;28;20863;-65
2023/04/19 05:53:25;;;;;;;11.27;4.60;;;10.80;98.00;;;;;;5055050;28;20465;-65
2023/04/19 05:55:52;;;;;;;10.50;4.23;;;10.80;98.00;;;;;;5053539;28;20458;-65
2023/04/19 05:58:20;;;;;;;7.33;3.77;;;10.90;98.00;;;;;;5054917;28;21005;-65
2023/04/19 06:00:56;;;;;;;11.23;4.33;;;10.80;98.00;;;;;;5053568;28;20461;-65
2023/04/19 06:03:23;;;;;;;9.80;4.60;;;10.80;98.00;;;;;;5054801;28;20467;-63
2023/04/19 06:05:52;;;;;;;7.20;3.83;;;10.80;98.00;;;;;;5054646;28;20462;-64
2023/04/19 06:08:20;;;;;;;6.60;3.53;;;10.90;98.00;;;;;;5054721;28;20482;-65
2023/04/19 06:10:48;;;;;;;8.10;4.10;;;10.80;98.00;;;;;;5054526;28;20503;-63
2023/04/19 06:13:17;;;;;;;10.27;3.97;;;10.80;98.00;;;;;;5054608;28;20476;-65
2023/04/19 06:15:44;;;;;;;6.97;3.70;;;10.80;98.00;;;;;;5054408;28;20488;-64
2023/04/19 06:18:11;;;;;;;9.57;3.73;;;10.90;98.00;;;;;;5054690;28;20468;-64
2023/04/19 06:20:39;;;;;;;8.40;3.80;;;10.90;98.00;;;;;;5054563;28;20462;-64
2023/04/19 06:23:08;;;;;;;8.53;3.80;;;10.90;98.00;;;;;;5054512;28;20460;-64
2023/04/19 06:25:35;;;;;;;15.33;3.93;;;10.90;98.00;;;;;;5054119;28;20548;-64
2023/04/19 06:28:04;;;;;;;8.53;4.83;;;11.00;98.00;;;;;;5054304;28;20480;-66
2023/04/19 06:30:31;;;;;;;6.23;3.20;;;11.10;98.00;;;;;;5054361;28;20528;-64
2023/04/19 06:32:58;;;;;;;7.87;4.37;;;11.20;98.00;;;;;;5054028;28;20471;-64
2023/04/19 06:35:25;;;;;;;8.87;4.07;;;11.10;98.00;;;;;;5053018;28;20461;-64
2023/04/19 06:37:52;;;;;;;13.90;4.53;;;11.10;98.00;;;;;;5052532;28;20465;-64
2023/04/19 06:40:21;;;;;;;9.47;3.80;;;11.20;98.00;;;;;;5054040;28;20975;-64
2023/04/19 06:42:48;;;;;;;11.27;4.20;;;11.30;98.00;;;;;;5053942;28;20878;-65
2023/04/19 06:45:16;;;;;;;12.33;5.23;;;11.30;98.00;;;;;;5053681;28;20454;-64
2023/04/19 06:47:43;;;;;;;11.93;4.60;;;11.30;98.00;;;;;;5053442;28;20910;-64
2023/04/19 06:50:11;;;;;;;9.40;4.23;;;11.50;98.00;;;;;;5053451;28;20471;-64
2023/04/19 06:52:38;;;;;;;8.10;4.43;;;11.60;98.00;;;;;;5053675;28;20981;-64
2023/04/19 06:55:06;;;;;;;12.70;4.30;;;11.70;98.00;;;;;;5052612;28;20460;-65
2023/04/19 06:57:35;;;;;;;8.83;4.00;;;11.60;98.00;;;;;;5053779;28;20554;-60
2023/04/19 07:00:05;;;;;;;7.87;3.40;;;11.70;98.00;;;;;;5053657;28;20468;-63
2023/04/19 07:02:32;;;;;;;14.80;4.70;;;11.70;98.00;;;;;;5053723;28;20999;-64
2023/04/19 07:04:59;;;;;;;14.30;4.37;;;11.60;98.00;;;;;;5053691;28;20468;-65
2023/04/19 07:07:26;;;;;;;8.57;4.07;;;11.70;98.00;;;;;;5053686;28;20458;-63
2023/04/19 07:09:53;;;;;;;6.43;3.30;;;11.90;98.00;;;;;;5053678;28;20538;-64
2023/04/19 07:12:20;;;;;;;12.50;4.50;;;12.10;98.00;;;;;;5053289;28;20453;-65
2023/04/19 07:14:55;;;;;;;10.70;4.33;;;12.10;98.00;;;;;;5053732;28;20945;-66
2023/04/19 07:17:22;;;;;;;5.83;3.57;;;12.20;98.00;;;;;;5053531;28;20450;-64
2023/04/19 07:19:49;;;;;;;5.80;3.27;;;12.30;98.00;;;;;;5053601;28;20949;-64
2023/04/19 07:22:16;;;;;;;7.13;4.00;;;12.40;98.00;;;;;;5053096;28;20473;-64
2023/04/19 07:24:43;;;;;;;7.53;3.67;;;12.40;98.00;;;;;;5053273;28;20978;-63
2023/04/19 07:27:11;;;;;;;7.97;3.63;;;12.50;98.00;;;;;;5052901;28;20491;-66
2023/04/19 07:29:40;;;;;;;9.87;3.87;;;12.40;98.00;;;;;;5052919;28;20486;-64
2023/04/19 07:32:08;;;;;;;7.73;3.97;;;12.60;98.00;;;;;;5052876;28;20486;-64
2023/04/19 07:34:37;;;;;;;10.30;4.10;;;12.80;98.00;;;;;;5052821;28;20520;-65
2023/04/19 07:37:05;;;;;;;9.10;3.90;;;12.90;98.00;;;;;;5052747;28;20850;-66
2023/04/19 07:39:32;;;;;;;7.50;3.43;;;13.00;98.00;;;;;;5051708;28;20826;-64
2023/04/19 07:42:00;;;;;;;8.17;3.27;;;13.00;98.00;;;;;;5052648;28;20463;-65
2023/04/19 07:44:27;;;;;;;6.50;3.40;;;13.00;98.00;;;;;;5052680;28;20505;-66
2023/04/19 07:46:54;;;;;;;5.77;3.23;;;13.10;98.00;;;;;;5052752;28;20466;-64
2023/04/19 07:49:23;;;;;;;10.20;4.30;;;13.10;98.00;;;;;;5052833;28;21202;-64
2023/04/19 07:51:50;;;;;;;8.20;3.63;;;13.20;98.00;;;;;;5051987;28;20460;-64
2023/04/19 07:54:19;;;;;;;5.00;3.20;;;13.30;98.00;;;;;;5054427;28;20472;-66
2023/04/19 07:56:51;;;;;;;6.57;3.67;;;13.20;98.00;;;;;;5050743;28;20497;-65
2023/04/19 07:59:18;;;;;;;6.67;4.43;;;13.20;98.00;;;;;;5050935;28;20470;-65
2023/04/19 08:01:45;;;;;;;6.80;3.57;;;13.20;98.00;;;;;;5051178;28;20469;-65
2023/04/19 08:04:12;;;;;;;7.57;4.17;;;13.20;98.00;;;;;;5051602;28;20460;-66
2023/04/19 08:06:41;;;;;;;5.93;3.20;;;13.20;98.00;;;;;;5051543;28;20471;-70
2023/04/19 08:09:08;;;;;;;5.63;3.37;;;13.30;98.00;;;;;;5051489;28;20488;-63
2023/04/19 08:11:35;;;;;;;7.13;3.90;;;13.20;98.00;;;;;;5050404;28;20462;-65
2023/04/19 08:14:02;;;;;;;8.13;3.73;;;13.20;98.00;;;;;;5051201;28;20963;-62
2023/04/19 08:16:29;;;;;;;6.00;3.53;;;13.10;98.00;;;;;;5051616;28;20454;-63
2023/04/19 08:19:02;;;;;;;7.30;3.60;;;13.00;98.00;;;;;;5051460;28;20455;-63
2023/04/19 08:21:30;;;;;;;7.13;3.60;;;13.00;98.00;;;;;;5050331;28;20978;-62
2023/04/19 08:23:58;;;;;;;7.63;4.20;;;13.00;98.00;;;;;;5051243;28;20457;-63
2023/04/19 08:26:25;;;;;;;8.53;4.00;;;13.00;98.00;;;;;;5051164;28;20460;-63
2023/04/19 08:28:52;;;;;;;7.60;3.80;;;12.90;98.00;;;;;;5051179;28;20489;-67
2023/04/19 08:31:20;;;;;;;6.93;3.47;;;13.00;98.00;;;;;;5051389;28;20453;-64
2023/04/19 08:33:47;;;;;;;7.40;3.90;;;13.10;98.00;;;;;;5051203;28;20517;-63
2023/04/19 08:36:15;;;;;;;10.50;4.63;;;13.20;98.00;;;;;;5051296;28;20462;-64
2023/04/19 08:38:42;;;;;;;8.67;3.80;;;13.10;98.00;;;;;;5051078;28;20469;-64
2023/04/19 08:41:13;;;;;;;10.07;3.87;;;13.10;98.00;;;;;;5050978;28;20455;-65
2023/04/19 08:43:43;;;;;;;11.43;3.30;;;13.20;98.00;;;;;;5051160;28;21082;-62
2023/04/19 08:46:12;;;;;;;7.93;3.70;;;13.30;98.00;;;;;;5051009;28;20469;-66
2023/04/19 08:48:40;;;;;;;8.00;3.80;;;13.40;98.00;;;;;;5051052;28;20565;-67
2023/04/19 08:51:09;;;;;;;9.03;4.37;;;13.50;98.00;;;;;;5050916;28;20465;-65
2023/04/19 08:53:37;;;;;;;8.13;3.57;;;13.60;98.00;;;;;;5051028;28;20456;-64
2023/04/19 08:56:04;;;;;;;8.93;4.13;;;13.80;98.00;;;;;;5051025;28;20469;-64
2023/04/19 08:58:35;;;;;;;7.77;3.37;;;13.90;98.00;;;;;;5051313;28;20456;-64
2023/04/19 09:01:04;;;;;;;5.60;3.27;;;13.90;98.00;;;;;;5051100;28;20468;-65
2023/04/19 09:03:32;;;;;;;7.23;2.90;;;14.00;98.00;;;;;;5051015;28;20461;-64
2023/04/19 09:06:01;;;;;;;7.50;3.70;;;14.00;98.00;;;;;;5050843;28;20826;-65
2023/04/19 09:08:29;;;;;;;5.90;3.17;;;13.80;98.00;;;;;;5051168;28;20456;-64
2023/04/19 09:10:59;;;;;;;7.93;4.10;;;13.80;98.00;;;;;;5053689;28;20516;-64
2023/04/19 09:13:27;;;;;;;5.10;3.10;;;13.90;98.00;;;;;;5055379;28;20476;-64
2023/04/19 09:15:59;;;;;;;5.13;3.20;;;13.90;98.00;;;;;;5054981;28;20462;-63
2023/04/19 09:18:26;;;;;;;8.30;3.90;;;13.90;98.00;;;;;;5055127;28;20451;-64
2023/04/19 09:20:56;;;;;;;10.30;4.10;;;13.90;98.00;;;;;;5054067;28;20583;-63
2023/04/19 09:23:25;;;;;;;9.00;4.17;;;13.80;98.00;;;;;;5055261;28;20466;-64
2023/04/19 09:25:53;;;;;;;6.40;3.70;;;13.70;98.00;;;;;;5054705;28;20495;-64
2023/04/19 09:28:21;;;;;;;5.40;3.20;;;13.90;98.00;;;;;;5055386;28;20476;-62
2023/04/19 09:30:49;;;;;;;7.50;3.33;;;13.90;98.00;;;;;;5055692;28;20451;-63
2023/04/19 09:33:32;;;;;;;5.13;3.00;;;13.90;98.00;;;;;;5055336;28;20927;-63
2023/04/19 09:36:00;;;;;;;9.17;3.30;;;14.00;98.00;;;;;;5055188;28;20492;-63
2023/04/19 09:38:27;;;;;;;7.27;3.70;;;13.90;98.00;;;;;;5055327;28;20464;-62
2023/04/19 09:41:06;;;;;;;10.50;4.20;;;14.00;98.00;;;;;;5054256;28;20468;-63
2023/04/19 09:43:36;;;;;;;6.97;3.97;;;14.20;98.00;;;;;;5055040;28;20502;-63
2023/04/19 09:46:03;;;;;;;5.43;3.20;;;14.20;98.00;;;;;;5053479;28;20507;-63
2023/04/19 09:48:31;;;;;;;6.60;3.83;;;14.20;98.00;;;;;;5054925;28;20459;-62
2023/04/19 09:50:59;;;;;;;8.80;3.70;;;14.20;98.00;;;;;;5054978;28;20485;-63
2023/04/19 09:53:29;;;;;;;6.83;3.83;;;14.20;98.00;;;;;;5055130;28;20507;-63
2023/04/19 09:55:57;;;;;;;8.70;4.03;;;14.10;98.00;;;;;;5054881;28;20455;-64
2023/04/19 09:58:24;;;;;;;4.60;2.90;;;14.10;98.00;;;;;;5055248;28;20461;-62
2023/04/19 10:00:53;;;;;;;8.93;3.87;;;14.10;98.00;;;;;;5054891;28;20462;-64
2023/04/19 10:03:21;;;;;;;6.67;3.67;;;14.20;98.00;;;;;;5055734;28;20470;-63
2023/04/19 10:05:50;;;;;;;9.63;3.33;;;14.10;98.00;;;;;;5055186;28;20452;-63
2023/04/19 10:08:18;;;;;;;9.73;4.57;;;14.00;98.00;;;;;;5054941;28;20467;-63
2023/04/19 10:10:48;;;;;;;5.77;3.70;;;13.90;98.00;;;;;;5054643;28;20487;-65
2023/04/19 10:13:21;;;;;;;6.30;3.37;;;13.90;98.00;;;;;;5053284;28;20848;-63
2023/04/19 10:15:48;;;;;;;8.27;3.47;;;13.90;98.00;;;;;;5051347;28;21040;-63
2023/04/19 10:18:16;;;;;;;8.27;4.20;;;13.90;98.00;;;;;;5050805;28;20475;-64
2023/04/19 10:20:53;;;;;;;8.10;3.80;;;13.80;98.00;;;;;;5052206;28;20469;-66
2023/04/19 10:23:21;;;;;;;7.93;3.57;;;13.90;98.00;;;;;;5045916;28;20473;-63
2023/04/19 10:25:48;;;;;;;5.67;3.23;;;13.90;98.00;;;;;;5051972;28;20467;-63
2023/04/19 10:28:16;;;;;;;7.10;3.60;;;13.80;98.00;;;;;;5051712;28;20778;-63
2023/04/19 10:30:54;;;;;;;7.87;3.87;;;13.90;98.00;;;;;;5051242;28;20579;-64
2023/04/19 10:33:26;;;;;;;8.00;3.27;;;13.90;98.00;;;;;;5051183;28;20464;-63
2023/04/19 10:35:57;;;;;;;7.50;3.73;;;13.90;98.00;;;;;;5050307;28;20566;-63
2023/04/19 10:38:39;;;;;;;9.13;4.33;;;13.90;98.00;;;;;;5050054;28;20528;-63
2023/04/19 10:41:13;;;;;;;7.30;3.97;;;13.90;98.00;;;;;;5051261;28;20468;-63
2023/04/19 10:43:41;;;;;;;8.20;3.27;;;13.90;98.00;;;;;;5052991;28;20495;-63
2023/04/19 10:46:13;;;;;;;9.40;3.77;;;14.00;98.00;;;;;;5052722;28;20548;-63
2023/04/19 10:48:52;;;;;;;7.63;3.60;;;14.00;98.00;;;;;;5052472;28;20464;-63
2023/04/19 10:51:22;;;;;;;7.80;3.70;;;14.10;98.00;;;;;;5054057;28;20492;-62
2023/04/19 10:53:55;;;;;;;6.33;4.00;;;14.00;98.00;;;;;;5052515;28;20457;-63
2023/04/19 10:56:46;;;;;;;9.10;3.80;;;14.00;98.00;;;;;;5053592;28;20454;-64
2023/04/19 10:59:22;;;;;;;6.87;3.47;;;13.90;98.00;;;;;;5053815;28;20456;-63
2023/04/19 11:01:51;;;;;;;8.90;4.43;;;13.90;98.00;;;;;;5054015;28;20544;-66
2023/04/19 11:04:20;;;;;;;8.83;3.50;;;13.90;98.00;;;;;;5053807;28;20870;-63
2023/04/19 11:07:07;;;;;;;5.13;3.30;;;13.90;98.00;;;;;;5053550;28;20463;-63
2023/04/19 11:09:41;;;;;;;8.20;3.60;;;13.80;98.00;;;;;;5051775;28;20488;-63
2023/04/19 11:14:40;;;;;;;9.60;4.27;;;13.50;98.00;;;;;;5030230;28;20574;-65
2023/04/19 11:17:15;;;;;;;11.33;5.23;;;13.40;98.00;;;;;;5030891;28;20460;-63
2023/04/19 11:19:44;;;;;;;10.90;4.73;;;13.40;98.00;;;;;;5032702;28;20578;-63
2023/04/19 11:22:12;;;;;;;8.47;4.10;;;13.30;98.00;;;;;;5032471;28;20551;-63
2023/04/19 11:24:47;;;;;;;7.67;3.80;;;13.20;98.00;;;;;;5032526;28;20515;-64
2023/04/19 11:27:14;;;;;;;10.80;5.10;;;13.20;98.00;;;;;;5032858;28;20463;-63
2023/04/19 11:29:41;;;;;;;9.60;4.70;;;13.20;98.00;;;;;;5032393;28;20850;-63
2023/04/19 11:32:08;;;;;;;8.87;4.37;;;13.10;98.00;;;;;;5031755;28;20963;-64
2023/04/19 11:34:40;;;;;;;9.87;4.77;;;13.00;98.00;;;;;;5032184;28;20466;-64
2023/04/19 11:37:08;;;;;;;13.40;4.83;;;13.00;98.00;;;;;;5030236;28;20516;-64
2023/04/19 11:39:46;;;;;;;7.30;4.23;;;12.90;98.00;;;;;;5031724;28;20458;-65
2023/04/19 11:42:18;;;;;;;8.17;3.97;;;12.80;98.00;;;;;;5030305;28;20843;-64
2023/04/19 11:44:50;;;;;;;8.67;4.03;;;12.70;98.00;;;;;;5030768;28;20531;-63
2023/04/19 11:47:18;;;;;;;12.27;5.53;;;12.70;98.00;;;;;;5028151;28;20530;-65
2023/04/19 11:49:45;;;;;;;7.73;3.90;;;12.60;98.00;;;;;;5031372;28;20490;-63
2023/04/19 11:52:12;;;;;;;10.63;5.00;;;12.50;98.00;;;;;;5030745;28;20952;-64
2023/04/19 11:54:45;;;;;;;10.17;4.87;;;12.50;98.00;;;;;;5030851;28;20475;-64
2023/04/19 11:57:12;;;;;;;9.00;4.63;;;12.50;98.00;;;;;;5031987;28;20555;-63
2023/04/19 12:00:00;;;;;;;10.03;5.00;;;12.50;98.00;;;;;;5032060;28;20463;-64
2023/04/19 12:02:27;;;;;;;17.17;6.57;;;12.50;98.00;;;;;;5031920;28;20471;-64
2023/04/19 12:04:54;;;;;;;13.00;5.43;;;12.30;98.00;;;;;;5030558;28;20462;-63
2023/04/19 12:07:22;;;;;;;12.73;4.70;;;12.20;98.00;;;;;;5031728;28;20465;-63
2023/04/19 12:09:50;;;;;;;10.10;5.20;;;12.10;98.00;;;;;;5031708;28;20487;-65
2023/04/19 12:12:32;;;;;;;12.93;5.30;;;12.10;98.00;;;;;;5031349;28;20457;-63
2023/04/19 12:14:59;;;;;;;12.27;4.90;;;12.10;98.00;;;;;;5011752;28;20510;-67
2023/04/19 12:17:26;;;;;;;11.57;5.87;;;12.10;98.00;;;;;;5011684;28;20461;-64
2023/04/19 12:19:53;;;;;;;10.90;5.90;;;12.10;98.00;;;;;;5011698;28;20917;-63
2023/04/19 12:22:22;;;;;;;12.57;5.13;;;12.00;98.00;;;;;;5011451;28;20455;-62
2023/04/19 12:24:53;;;;;;;9.90;4.13;;;11.90;98.00;;;;;;5011745;28;20451;-66
2023/04/19 12:27:20;;;;;;;9.70;4.90;;;11.80;98.00;;;;;;5011587;28;21129;-65
2023/04/19 12:29:47;;;;;;;8.60;4.60;;;11.80;98.00;;;;;;5011462;28;20484;-63
2023/04/19 12:32:14;;;;;;;7.47;3.67;;;11.80;98.00;;;;;;5011443;28;20469;-63
2023/04/19 12:34:42;;;;;;;11.53;4.80;;;11.90;98.00;;;;;;5010535;28;20882;-63
2023/04/19 12:37:09;;;;;;;8.27;4.20;;;12.00;98.00;;;;;;5011409;28;20465;-62
2023/04/19 12:39:36;;;;;;;16.13;5.23;;;12.00;98.00;;;;;;5011733;28;20493;-63
2023/04/19 12:42:05;;;;;;;12.50;4.90;;;11.90;98.00;;;;;;5010186;28;20956;-64
2023/04/19 12:44:32;;;;;;;9.43;4.83;;;11.90;98.00;;;;;;5011007;28;20465;-64
2023/04/19 12:47:01;;;;;;;9.80;4.83;;;11.90;98.00;;;;;;5011417;28;20468;-62
2023/04/19 12:49:28;;;;;;;10.90;4.50;;;11.80;98.00;;;;;;5011472;28;20472;-63
2023/04/19 12:51:55;;;;;;;9.20;4.53;;;11.80;98.00;;;;;;5011471;28;20496;-63
2023/04/19 12:54:22;;;;;;;9.43;4.20;;;11.80;98.00;;;;;;5011474;28;20982;-64
2023/04/19 12:56:50;;;;;;;8.83;4.47;;;11.80;98.00;;;;;;5011592;28;20456;-63
2023/04/19 12:59:18;;;;;;;14.00;4.07;;;11.80;98.00;;;;;;5011276;28;20463;-63
2023/04/19 13:01:46;;;;;;;12.10;4.60;;;11.50;98.00;;;;;;5011358;28;20474;-64
2023/04/19 13:04:13;;;;;;;11.40;4.60;;;11.30;98.00;;;;;;5011148;28;20458;-64
2023/04/19 13:06:40;;;;;;;11.53;5.00;;;11.20;98.00;;;;;;5011175;28;20470;-64
2023/04/19 13:09:07;;;;;;;11.37;4.37;;;11.30;98.00;;;;;;5027953;28;20524;-63